sensor_id;sensor_type;location;lat;lon;timestamp;temperature;humidity
37754;DHT22;23596;52.520;13.464;2022-09-12T00:02:21;16.30;99.90
37754;DHT22;23596;52.520;13.464;2022-09-12T00:04:46;15.40;99.90
37754;DHT22;23596;52.520;13.464;2022-09-12T00:07:12;15.40;99.90
37754;DHT22;23596;52.520;13.464;2022-09-12T00:09:38;15.30;99.90
37754;DHT22;23596;52.520;13.464;2022-09-12T00:12:04;15.30;99.90
37754;DHT22;23596;52.520;13.464;2022-09-12T00:14:30;15.30;99.90
37754;DHT22;23596;52.520;13.464;2022-09-12T00:16:59;15.30;99.90
37754;DHT22;23596;52.520;13.464;2022-09-12T00:19:26;15.30;99.90
37754;DHT22;23596;52.520;13.464;2022-09-12T00:21:52;15.30;99.90
37754;DHT22;23596;52.520;13.464;2022-09-12T00:24:18;15.30;99.90
37754;DHT22;23596;52.520;13.464;2022-09-12T00:26:43;15.20;99.90
37754;DHT22;23596;52.520;13.464;2022-09-12T00:29:14;15.20;99.90
37754;DHT22;23596;52.520;13.464;2022-09-12T00:31:40;15.20;99.90
37754;DHT22;23596;52.520;13.464;2022-09-12T00:34:06;15.20;99.90
37754;DHT22;23596;52.520;13.464;2022-09-12T00:36:32;15.20;99.90
37754;DHT22;23596;52.520;13.464;2022-09-12T00:38:57;15.20;99.90
37754;DHT22;23596;52.520;13.464;2022-09-12T00:41:27;16.40;99.90
37754;DHT22;23596;52.520;13.464;2022-09-12T00:43:55;15.10;99.90
37754;DHT22;23596;52.520;13.464;2022-09-12T00:46:39;15.00;99.90
37754;DHT22;23596;52.520;13.464;2022-09-12T00:49:16;15.00;99.90
37754;DHT22;23596;52.520;13.464;2022-09-12T00:51:52;15.00;99.90
37754;DHT22;23596;52.520;13.464;2022-09-12T00:54:22;14.90;99.90
37754;DHT22;23596;52.520;13.464;2022-09-12T00:56:51;15.00;99.90
37754;DHT22;23596;52.520;13.464;2022-09-12T00:59:23;15.00;99.90
37754;DHT22;23596;52.520;13.464;2022-09-12T01:01:50;15.00;99.90
37754;DHT22;23596;52.520;13.464;2022-09-12T01:04:18;15.10;99.90
37754;DHT22;23596;52.520;13.464;2022-09-12T01:06:45;14.90;99.90
37754;DHT22;23596;52.520;13.464;2022-09-12T01:09:18;14.90;99.90
37754;DHT22;23596;52.520;13.464;2022-09-12T01:11:44;14.90;99.90
37754;DHT22;23596;52.520;13.464;2022-09-12T01:14:11;14.90;99.90
37754;DHT22;23596;52.520;13.464;2022-09-12T01:16:37;14.90;99.90
37754;DHT22;23596;52.520;13.464;2022-09-12T01:27:54;14.90;99.90
37754;DHT22;23596;52.520;13.464;2022-09-12T01:32:59;14.70;99.90
37754;DHT22;23596;52.520;13.464;2022-09-12T01:38:45;14.80;99.90
37754;DHT22;23596;52.520;13.464;2022-09-12T01:41:37;14.80;99.90
37754;DHT22;23596;52.520;13.464;2022-09-12T01:47:05;14.80;99.90
37754;DHT22;23596;52.520;13.464;2022-09-12T01:52:23;14.70;99.90
37754;DHT22;23596;52.520;13.464;2022-09-12T01:54:52;14.70;99.90
37754;DHT22;23596;52.520;13.464;2022-09-12T01:57:26;14.70;99.90
37754;DHT22;23596;52.520;13.464;2022-09-12T01:59:57;14.70;99.90
37754;DHT22;23596;52.520;13.464;2022-09-12T02:02:33;14.70;99.90
37754;DHT22;23596;52.520;13.464;2022-09-12T02:05:14;14.70;99.90
37754;DHT22;23596;52.520;13.464;2022-09-12T02:07:50;14.70;99.90
37754;DHT22;23596;52.520;13.464;2022-09-12T02:10:25;14.60;99.90
37754;DHT22;23596;52.520;13.464;2022-09-12T02:12:57;14.60;99.90
37754;DHT22;23596;52.520;13.464;2022-09-12T02:15:31;14.60;99.90
37754;DHT22;23596;52.520;13.464;2022-09-12T02:17:59;14.60;99.90
37754;DHT22;23596;52.520;13.464;2022-09-12T02:20:32;14.60;99.90
37754;DHT22;23596;52.520;13.464;2022-09-12T02:22:59;14.60;99.90
37754;DHT22;23596;52.520;13.464;2022-09-12T02:25:26;14.50;99.90
37754;DHT22;23596;52.520;13.464;2022-09-12T02:28:02;14.50;99.90
37754;DHT22;23596;52.520;13.464;2022-09-12T02:30:39;14.50;99.90
37754;DHT22;23596;52.520;13.464;2022-09-12T02:36:06;14.50;99.90
37754;DHT22;23596;52.520;13.464;2022-09-12T02:38:44;14.50;99.90
37754;DHT22;23596;52.520;13.464;2022-09-12T02:41:14;14.40;99.90
37754;DHT22;23596;52.520;13.464;2022-09-12T02:43:40;14.40;99.90
37754;DHT22;23596;52.520;13.464;2022-09-12T02:46:11;14.40;99.90
37754;DHT22;23596;52.520;13.464;2022-09-12T02:48:39;14.40;99.90
37754;DHT22;23596;52.520;13.464;2022-09-12T02:51:07;14.40;99.90
37754;DHT22;23596;52.520;13.464;2022-09-12T02:53:32;14.40;99.90
37754;DHT22;23596;52.520;13.464;2022-09-12T02:55:58;14.80;99.90
37754;DHT22;23596;52.520;13.464;2022-09-12T02:58:26;14.30;99.90
37754;DHT22;23596;52.520;13.464;2022-09-12T03:01:10;14.30;99.90
37754;DHT22;23596;52.520;13.464;2022-09-12T03:06:39;14.30;99.90
37754;DHT22;23596;52.520;13.464;2022-09-12T03:09:14;14.20;99.90
37754;DHT22;23596;52.520;13.464;2022-09-12T03:14:34;14.20;99.90
37754;DHT22;23596;52.520;13.464;2022-09-12T03:25:48;14.10;99.90
37754;DHT22;23596;52.520;13.464;2022-09-12T03:28:16;14.00;99.90
37754;DHT22;23596;52.520;13.464;2022-09-12T03:30:45;14.00;99.90
37754;DHT22;23596;52.520;13.464;2022-09-12T03:33:22;14.00;99.90
37754;DHT22;23596;52.520;13.464;2022-09-12T03:35:49;14.00;99.90
37754;DHT22;23596;52.520;13.464;2022-09-12T03:38:15;13.90;99.90
37754;DHT22;23596;52.520;13.464;2022-09-12T03:40:41;13.90;99.90
37754;DHT22;23596;52.520;13.464;2022-09-12T03:43:07;13.90;99.90
37754;DHT22;23596;52.520;13.464;2022-09-12T03:45:33;13.90;99.90
37754;DHT22;23596;52.520;13.464;2022-09-12T03:47:59;13.90;99.90
37754;DHT22;23596;52.520;13.464;2022-09-12T03:50:25;13.90;99.90
37754;DHT22;23596;52.520;13.464;2022-09-12T03:52:50;13.90;99.90
37754;DHT22;23596;52.520;13.464;2022-09-12T03:55:16;14.00;99.90
37754;DHT22;23596;52.520;13.464;2022-09-12T03:57:42;14.00;99.90
37754;DHT22;23596;52.520;13.464;2022-09-12T04:00:08;14.00;99.90
37754;DHT22;23596;52.520;13.464;2022-09-12T04:02:34;14.00;99.90
37754;DHT22;23596;52.520;13.464;2022-09-12T04:05:00;14.00;99.90
37754;DHT22;23596;52.520;13.464;2022-09-12T04:07:26;14.00;99.90
37754;DHT22;23596;52.520;13.464;2022-09-12T04:09:51;14.00;99.90
37754;DHT22;23596;52.520;13.464;2022-09-12T04:12:18;14.00;99.90
37754;DHT22;23596;52.520;13.464;2022-09-12T04:14:44;14.00;99.90
37754;DHT22;23596;52.520;13.464;2022-09-12T04:17:10;13.90;99.90
37754;DHT22;23596;52.520;13.464;2022-09-12T04:19:35;13.90;99.90
37754;DHT22;23596;52.520;13.464;2022-09-12T04:22:01;14.00;99.90
37754;DHT22;23596;52.520;13.464;2022-09-12T04:24:27;13.90;99.90
37754;DHT22;23596;52.520;13.464;2022-09-12T04:26:52;13.90;99.90
37754;DHT22;23596;52.520;13.464;2022-09-12T04:29:18;13.90;99.90
37754;DHT22;23596;52.520;13.464;2022-09-12T04:31:44;13.90;99.90
37754;DHT22;23596;52.520;13.464;2022-09-12T04:34:09;13.90;99.90
37754;DHT22;23596;52.520;13.464;2022-09-12T04:36:35;15.20;99.90
37754;DHT22;23596;52.520;13.464;2022-09-12T04:39:03;13.90;99.90
37754;DHT22;23596;52.520;13.464;2022-09-12T04:41:32;13.90;99.90
37754;DHT22;23596;52.520;13.464;2022-09-12T04:44:00;13.90;99.90
37754;DHT22;23596;52.520;13.464;2022-09-12T04:46:39;13.90;99.90
37754;DHT22;23596;52.520;13.464;2022-09-12T04:49:05;13.90;99.90
37754;DHT22;23596;52.520;13.464;2022-09-12T04:51:36;13.90;99.90
37754;DHT22;23596;52.520;13.464;2022-09-12T04:54:05;13.90;99.90
37754;DHT22;23596;52.520;13.464;2022-09-12T04:56:31;13.90;99.90
37754;DHT22;23596;52.520;13.464;2022-09-12T04:58:59;13.90;99.90
37754;DHT22;23596;52.520;13.464;2022-09-12T05:01:26;13.90;99.90
37754;DHT22;23596;52.520;13.464;2022-09-12T05:03:52;13.90;99.90
37754;DHT22;23596;52.520;13.464;2022-09-12T05:06:23;14.40;99.90
37754;DHT22;23596;52.520;13.464;2022-09-12T05:08:50;14.00;99.90
37754;DHT22;23596;52.520;13.464;2022-09-12T05:11:19;14.00;99.90
37754;DHT22;23596;52.520;13.464;2022-09-12T05:13:45;14.00;99.90
37754;DHT22;23596;52.520;13.464;2022-09-12T05:16:13;14.00;99.90
37754;DHT22;23596;52.520;13.464;2022-09-12T05:18:40;13.90;99.90
37754;DHT22;23596;52.520;13.464;2022-09-12T05:21:08;14.00;99.90
37754;DHT22;23596;52.520;13.464;2022-09-12T05:23:34;14.00;99.90
37754;DHT22;23596;52.520;13.464;2022-09-12T05:26:02;14.00;99.90
37754;DHT22;23596;52.520;13.464;2022-09-12T05:28:36;15.30;99.90
37754;DHT22;23596;52.520;13.464;2022-09-12T05:31:19;14.00;99.90
37754;DHT22;23596;52.520;13.464;2022-09-12T05:33:46;14.00;99.90
37754;DHT22;23596;52.520;13.464;2022-09-12T05:36:27;14.00;99.90
37754;DHT22;23596;52.520;13.464;2022-09-12T05:38:53;14.00;99.90
37754;DHT22;23596;52.520;13.464;2022-09-12T05:41:24;14.10;99.90
37754;DHT22;23596;52.520;13.464;2022-09-12T05:43:52;14.00;99.90
37754;DHT22;23596;52.520;13.464;2022-09-12T05:46:20;14.10;99.90
37754;DHT22;23596;52.520;13.464;2022-09-12T05:48:46;14.10;99.90
37754;DHT22;23596;52.520;13.464;2022-09-12T05:51:14;14.10;99.90
37754;DHT22;23596;52.520;13.464;2022-09-12T05:53:49;14.10;99.90
37754;DHT22;23596;52.520;13.464;2022-09-12T05:56:19;14.20;99.90
37754;DHT22;23596;52.520;13.464;2022-09-12T05:58:47;14.20;99.90
37754;DHT22;23596;52.520;13.464;2022-09-12T06:01:17;14.20;99.90
37754;DHT22;23596;52.520;13.464;2022-09-12T06:03:45;14.20;99.90
37754;DHT22;23596;52.520;13.464;2022-09-12T06:06:13;14.30;99.90
37754;DHT22;23596;52.520;13.464;2022-09-12T06:08:41;14.30;99.90
37754;DHT22;23596;52.520;13.464;2022-09-12T06:11:08;14.30;99.90
37754;DHT22;23596;52.520;13.464;2022-09-12T06:13:35;14.30;99.90
37754;DHT22;23596;52.520;13.464;2022-09-12T06:16:10;14.30;99.90
37754;DHT22;23596;52.520;13.464;2022-09-12T06:18:37;14.30;99.90
37754;DHT22;23596;52.520;13.464;2022-09-12T06:23:28;14.40;99.90
37754;DHT22;23596;52.520;13.464;2022-09-12T06:25:54;14.40;99.90
37754;DHT22;23596;52.520;13.464;2022-09-12T06:28:20;14.50;99.90
37754;DHT22;23596;52.520;13.464;2022-09-12T06:30:45;14.50;99.90
37754;DHT22;23596;52.520;13.464;2022-09-12T06:33:11;14.60;99.90
37754;DHT22;23596;52.520;13.464;2022-09-12T06:35:37;14.50;99.90
37754;DHT22;23596;52.520;13.464;2022-09-12T06:38:03;14.60;99.90
37754;DHT22;23596;52.520;13.464;2022-09-12T06:40:29;14.70;99.90
37754;DHT22;23596;52.520;13.464;2022-09-12T06:42:55;14.60;99.90
37754;DHT22;23596;52.520;13.464;2022-09-12T06:45:20;14.70;99.90
37754;DHT22;23596;52.520;13.464;2022-09-12T06:47:47;14.70;99.90
37754;DHT22;23596;52.520;13.464;2022-09-12T06:50:12;14.70;99.90
37754;DHT22;23596;52.520;13.464;2022-09-12T06:52:38;14.70;99.90
37754;DHT22;23596;52.520;13.464;2022-09-12T06:55:04;14.80;99.90
37754;DHT22;23596;52.520;13.464;2022-09-12T06:57:30;14.80;99.90
37754;DHT22;23596;52.520;13.464;2022-09-12T06:59:57;14.80;99.90
37754;DHT22;23596;52.520;13.464;2022-09-12T07:02:23;14.90;99.90
37754;DHT22;23596;52.520;13.464;2022-09-12T07:04:50;15.90;99.90
37754;DHT22;23596;52.520;13.464;2022-09-12T07:07:16;14.90;99.90
37754;DHT22;23596;52.520;13.464;2022-09-12T07:09:41;14.90;99.90
37754;DHT22;23596;52.520;13.464;2022-09-12T07:12:07;15.00;99.90
37754;DHT22;23596;52.520;13.464;2022-09-12T07:14:33;15.00;99.90
37754;DHT22;23596;52.520;13.464;2022-09-12T07:16:58;15.00;99.90
37754;DHT22;23596;52.520;13.464;2022-09-12T07:19:24;15.10;99.90
37754;DHT22;23596;52.520;13.464;2022-09-12T07:21:49;15.10;99.90
37754;DHT22;23596;52.520;13.464;2022-09-12T07:24:15;15.10;99.90
37754;DHT22;23596;52.520;13.464;2022-09-12T07:26:41;16.00;99.90
37754;DHT22;23596;52.520;13.464;2022-09-12T07:29:08;15.20;99.90
37754;DHT22;23596;52.520;13.464;2022-09-12T07:31:36;15.20;99.90
37754;DHT22;23596;52.520;13.464;2022-09-12T07:34:04;15.30;99.90
37754;DHT22;23596;52.520;13.464;2022-09-12T07:36:30;15.30;99.90
37754;DHT22;23596;52.520;13.464;2022-09-12T07:38:57;15.30;99.90
37754;DHT22;23596;52.520;13.464;2022-09-12T07:41:27;15.30;99.90
37754;DHT22;23596;52.520;13.464;2022-09-12T07:43:55;15.30;99.90
37754;DHT22;23596;52.520;13.464;2022-09-12T07:46:22;15.40;99.90
37754;DHT22;23596;52.520;13.464;2022-09-12T07:48:57;15.30;99.90
37754;DHT22;23596;52.520;13.464;2022-09-12T07:51:24;15.40;99.90
37754;DHT22;23596;52.520;13.464;2022-09-12T07:53:50;15.50;99.90
37754;DHT22;23596;52.520;13.464;2022-09-12T07:56:16;15.50;99.90
37754;DHT22;23596;52.520;13.464;2022-09-12T07:58:44;15.50;99.90
37754;DHT22;23596;52.520;13.464;2022-09-12T08:01:15;15.60;99.90
37754;DHT22;23596;52.520;13.464;2022-09-12T08:03:43;15.60;99.90
37754;DHT22;23596;52.520;13.464;2022-09-12T08:06:11;15.70;99.90
37754;DHT22;23596;52.520;13.464;2022-09-12T08:08:38;15.70;99.90
37754;DHT22;23596;52.520;13.464;2022-09-12T08:11:07;15.70;99.90
37754;DHT22;23596;52.520;13.464;2022-09-12T08:13:34;16.60;99.90
37754;DHT22;23596;52.520;13.464;2022-09-12T08:16:00;16.20;99.90
37754;DHT22;23596;52.520;13.464;2022-09-12T08:18:26;15.90;99.90
37754;DHT22;23596;52.520;13.464;2022-09-12T08:21:07;15.90;99.90
37754;DHT22;23596;52.520;13.464;2022-09-12T08:23:34;16.00;99.90
37754;DHT22;23596;52.520;13.464;2022-09-12T08:26:02;16.10;99.90
37754;DHT22;23596;52.520;13.464;2022-09-12T08:28:29;16.20;99.90
37754;DHT22;23596;52.520;13.464;2022-09-12T08:31:06;16.20;99.90
37754;DHT22;23596;52.520;13.464;2022-09-12T08:33:32;16.30;99.90
37754;DHT22;23596;52.520;13.464;2022-09-12T08:36:06;16.50;99.90
37754;DHT22;23596;52.520;13.464;2022-09-12T08:38:33;16.30;99.90
37754;DHT22;23596;52.520;13.464;2022-09-12T08:49:13;16.50;99.90
37754;DHT22;23596;52.520;13.464;2022-09-12T08:51:39;16.60;99.90
37754;DHT22;23596;52.520;13.464;2022-09-12T08:54:19;16.60;99.90
37754;DHT22;23596;52.520;13.464;2022-09-12T08:56:45;16.60;99.90
37754;DHT22;23596;52.520;13.464;2022-09-12T08:59:11;16.70;99.90
37754;DHT22;23596;52.520;13.464;2022-09-12T09:01:42;16.70;99.90
37754;DHT22;23596;52.520;13.464;2022-09-12T09:12:40;17.00;99.90
37754;DHT22;23596;52.520;13.464;2022-09-12T09:15:46;17.10;99.90
37754;DHT22;23596;52.520;13.464;2022-09-12T09:23:39;17.20;99.90
37754;DHT22;23596;52.520;13.464;2022-09-12T09:26:14;17.30;99.90
37754;DHT22;23596;52.520;13.464;2022-09-12T09:28:51;17.30;99.90
37754;DHT22;23596;52.520;13.464;2022-09-12T09:31:20;17.40;99.90
37754;DHT22;23596;52.520;13.464;2022-09-12T09:33:51;17.50;99.90
37754;DHT22;23596;52.520;13.464;2022-09-12T09:44:29;17.70;99.90
37754;DHT22;23596;52.520;13.464;2022-09-12T09:46:57;17.70;99.90
37754;DHT22;23596;52.520;13.464;2022-09-12T09:49:29;17.60;99.90
37754;DHT22;23596;52.520;13.464;2022-09-12T09:51:56;17.60;99.90
37754;DHT22;23596;52.520;13.464;2022-09-12T09:54:25;17.70;99.90
37754;DHT22;23596;52.520;13.464;2022-09-12T09:56:52;17.70;99.90
37754;DHT22;23596;52.520;13.464;2022-09-12T09:59:25;17.90;99.90
37754;DHT22;23596;52.520;13.464;2022-09-12T10:01:59;17.90;99.90
37754;DHT22;23596;52.520;13.464;2022-09-12T10:04:35;18.00;99.90
37754;DHT22;23596;52.520;13.464;2022-09-12T10:07:03;18.00;99.90
37754;DHT22;23596;52.520;13.464;2022-09-12T10:09:33;18.10;99.90
37754;DHT22;23596;52.520;13.464;2022-09-12T10:12:01;18.20;99.90
37754;DHT22;23596;52.520;13.464;2022-09-12T10:14:48;18.30;99.90
37754;DHT22;23596;52.520;13.464;2022-09-12T10:17:24;19.40;99.90
37754;DHT22;23596;52.520;13.464;2022-09-12T10:19:51;18.50;99.90
37754;DHT22;23596;52.520;13.464;2022-09-12T10:22:20;19.30;99.90
37754;DHT22;23596;52.520;13.464;2022-09-12T10:24:50;18.50;99.90
37754;DHT22;23596;52.520;13.464;2022-09-12T10:27:21;18.60;99.90
37754;DHT22;23596;52.520;13.464;2022-09-12T10:29:53;18.80;99.90
37754;DHT22;23596;52.520;13.464;2022-09-12T10:35:00;18.70;99.90
37754;DHT22;23596;52.520;13.464;2022-09-12T10:37:37;18.70;99.90
37754;DHT22;23596;52.520;13.464;2022-09-12T10:40:06;18.70;99.90
37754;DHT22;23596;52.520;13.464;2022-09-12T10:42:51;18.70;99.90
37754;DHT22;23596;52.520;13.464;2022-09-12T10:47:56;18.60;99.90
37754;DHT22;23596;52.520;13.464;2022-09-12T10:50:29;18.60;99.90
37754;DHT22;23596;52.520;13.464;2022-09-12T10:53:17;18.60;99.90
37754;DHT22;23596;52.520;13.464;2022-09-12T10:56:04;18.50;99.90
37754;DHT22;23596;52.520;13.464;2022-09-12T11:01:54;18.50;99.90
37754;DHT22;23596;52.520;13.464;2022-09-12T11:07:33;18.60;99.90
37754;DHT22;23596;52.520;13.464;2022-09-12T11:10:28;18.70;99.90
37754;DHT22;23596;52.520;13.464;2022-09-12T11:13:10;18.80;99.90
37754;DHT22;23596;52.520;13.464;2022-09-12T11:16:10;19.10;99.90
37754;DHT22;23596;52.520;13.464;2022-09-12T11:18:54;19.20;99.90
37754;DHT22;23596;52.520;13.464;2022-09-12T11:27:12;19.70;99.90
37754;DHT22;23596;52.520;13.464;2022-09-12T11:29:56;19.80;99.90
37754;DHT22;23596;52.520;13.464;2022-09-12T11:35:27;19.80;99.90
37754;DHT22;23596;52.520;13.464;2022-09-12T11:42:49;19.80;99.90
37754;DHT22;23596;52.520;13.464;2022-09-12T11:45:21;19.80;99.90
37754;DHT22;23596;52.520;13.464;2022-09-12T11:47:52;20.00;99.90
37754;DHT22;23596;52.520;13.464;2022-09-12T11:50:30;19.90;99.90
37754;DHT22;23596;52.520;13.464;2022-09-12T11:53:17;20.00;99.90
37754;DHT22;23596;52.520;13.464;2022-09-12T11:56:04;20.20;99.90
37754;DHT22;23596;52.520;13.464;2022-09-12T11:58:32;20.40;99.90
37754;DHT22;23596;52.520;13.464;2022-09-12T12:01:54;20.60;99.90
37754;DHT22;23596;52.520;13.464;2022-09-12T12:03:54;20.80;99.90
37754;DHT22;23596;52.520;13.464;2022-09-12T12:06:29;21.10;99.90
37754;DHT22;23596;52.520;13.464;2022-09-12T12:08:56;21.30;99.90
37754;DHT22;23596;52.520;13.464;2022-09-12T12:11:41;21.50;99.90
37754;DHT22;23596;52.520;13.464;2022-09-12T12:14:27;21.90;99.90
37754;DHT22;23596;52.520;13.464;2022-09-12T12:16:56;22.30;99.90
37754;DHT22;23596;52.520;13.464;2022-09-12T12:19:35;22.70;99.90
37754;DHT22;23596;52.520;13.464;2022-09-12T12:22:06;23.00;99.90
37754;DHT22;23596;52.520;13.464;2022-09-12T12:24:32;23.30;99.90
37754;DHT22;23596;52.520;13.464;2022-09-12T12:26:59;23.40;99.90
37754;DHT22;23596;52.520;13.464;2022-09-12T12:29:43;23.50;99.90
37754;DHT22;23596;52.520;13.464;2022-09-12T12:34:44;23.90;99.90
37754;DHT22;23596;52.520;13.464;2022-09-12T12:44:58;24.70;99.90
37754;DHT22;23596;52.520;13.464;2022-09-12T12:47:54;24.80;99.90
37754;DHT22;23596;52.520;13.464;2022-09-12T12:50:23;24.90;99.30
37754;DHT22;23596;52.520;13.464;2022-09-12T12:52:57;24.90;99.50
37754;DHT22;23596;52.520;13.464;2022-09-12T12:58:04;24.80;99.20
37754;DHT22;23596;52.520;13.464;2022-09-12T13:00:37;24.80;98.80
37754;DHT22;23596;52.520;13.464;2022-09-12T13:05:55;24.80;98.20
37754;DHT22;23596;52.520;13.464;2022-09-12T13:08:30;24.70;97.70
37754;DHT22;23596;52.520;13.464;2022-09-12T13:11:26;24.70;98.40
37754;DHT22;23596;52.520;13.464;2022-09-12T13:16:53;24.40;97.30
37754;DHT22;23596;52.520;13.464;2022-09-12T13:19:28;24.40;97.20
37754;DHT22;23596;52.520;13.464;2022-09-12T13:21:55;24.40;97.80
37754;DHT22;23596;52.520;13.464;2022-09-12T13:24:21;24.30;97.40
37754;DHT22;23596;52.520;13.464;2022-09-12T13:26:47;24.30;97.40
37754;DHT22;23596;52.520;13.464;2022-09-12T13:29:16;24.40;97.40
37754;DHT22;23596;52.520;13.464;2022-09-12T13:31:44;24.40;97.40
37754;DHT22;23596;52.520;13.464;2022-09-12T13:34:19;24.30;97.40
37754;DHT22;23596;52.520;13.464;2022-09-12T13:37:06;24.20;97.60
37754;DHT22;23596;52.520;13.464;2022-09-12T13:39:59;24.10;98.00
37754;DHT22;23596;52.520;13.464;2022-09-12T13:42:47;24.00;97.30
37754;DHT22;23596;52.520;13.464;2022-09-12T13:47:47;23.80;97.20
37754;DHT22;23596;52.520;13.464;2022-09-12T13:50:23;23.60;97.70
37754;DHT22;23596;52.520;13.464;2022-09-12T13:52:54;23.50;97.50
37754;DHT22;23596;52.520;13.464;2022-09-12T13:55:42;23.50;97.30
37754;DHT22;23596;52.520;13.464;2022-09-12T13:58:23;23.50;97.20
37754;DHT22;23596;52.520;13.464;2022-09-12T14:01:06;23.60;97.10
37754;DHT22;23596;52.520;13.464;2022-09-12T14:03:54;23.60;97.90
37754;DHT22;23596;52.520;13.464;2022-09-12T14:06:45;23.70;97.30
37754;DHT22;23596;52.520;13.464;2022-09-12T14:09:20;23.60;97.60
37754;DHT22;23596;52.520;13.464;2022-09-12T14:11:47;23.50;97.50
37754;DHT22;23596;52.520;13.464;2022-09-12T14:14:31;23.50;97.60
37754;DHT22;23596;52.520;13.464;2022-09-12T14:16:58;23.60;97.10
37754;DHT22;23596;52.520;13.464;2022-09-12T14:19:25;23.70;97.40
37754;DHT22;23596;52.520;13.464;2022-09-12T14:21:52;23.80;96.90
37754;DHT22;23596;52.520;13.464;2022-09-12T14:24:19;23.90;97.40
37754;DHT22;23596;52.520;13.464;2022-09-12T14:26:47;23.90;97.30
37754;DHT22;23596;52.520;13.464;2022-09-12T14:29:15;23.80;97.40
37754;DHT22;23596;52.520;13.464;2022-09-12T14:31:42;23.80;97.40
37754;DHT22;23596;52.520;13.464;2022-09-12T14:39:16;23.60;97.70
37754;DHT22;23596;52.520;13.464;2022-09-12T14:41:44;23.50;97.80
37754;DHT22;23596;52.520;13.464;2022-09-12T14:44:18;23.40;97.80
37754;DHT22;23596;52.520;13.464;2022-09-12T14:46:45;23.20;97.80
37754;DHT22;23596;52.520;13.464;2022-09-12T14:49:35;23.00;98.30
37754;DHT22;23596;52.520;13.464;2022-09-12T14:52:03;22.90;98.30
37754;DHT22;23596;52.520;13.464;2022-09-12T14:57:01;22.70;98.40
37754;DHT22;23596;52.520;13.464;2022-09-12T15:07:35;22.30;99.10
37754;DHT22;23596;52.520;13.464;2022-09-12T15:10:14;22.10;98.70
37754;DHT22;23596;52.520;13.464;2022-09-12T15:12:41;22.00;98.70
37754;DHT22;23596;52.520;13.464;2022-09-12T15:17:38;21.80;99.20
37754;DHT22;23596;52.520;13.464;2022-09-12T15:20:04;21.70;99.00
37754;DHT22;23596;52.520;13.464;2022-09-12T15:22:31;21.50;99.40
37754;DHT22;23596;52.520;13.464;2022-09-12T15:24:57;21.40;99.50
37754;DHT22;23596;52.520;13.464;2022-09-12T15:27:23;21.40;99.50
37754;DHT22;23596;52.520;13.464;2022-09-12T15:29:50;21.30;99.90
37754;DHT22;23596;52.520;13.464;2022-09-12T15:32:28;21.30;99.60
37754;DHT22;23596;52.520;13.464;2022-09-12T15:34:53;21.20;99.90
37754;DHT22;23596;52.520;13.464;2022-09-12T15:37:21;21.20;99.70
37754;DHT22;23596;52.520;13.464;2022-09-12T15:39:47;21.20;99.90
37754;DHT22;23596;52.520;13.464;2022-09-12T15:42:14;21.10;99.90
37754;DHT22;23596;52.520;13.464;2022-09-12T15:44:41;21.70;99.90
37754;DHT22;23596;52.520;13.464;2022-09-12T15:47:13;21.10;99.90
37754;DHT22;23596;52.520;13.464;2022-09-12T15:49:39;21.10;99.90
37754;DHT22;23596;52.520;13.464;2022-09-12T15:52:06;21.10;99.60
37754;DHT22;23596;52.520;13.464;2022-09-12T15:54:32;21.00;99.80
37754;DHT22;23596;52.520;13.464;2022-09-12T15:56:58;21.00;99.90
37754;DHT22;23596;52.520;13.464;2022-09-12T15:59:23;20.80;99.90
37754;DHT22;23596;52.520;13.464;2022-09-12T16:01:49;20.90;99.90
37754;DHT22;23596;52.520;13.464;2022-09-12T16:04:23;20.90;99.90
37754;DHT22;23596;52.520;13.464;2022-09-12T16:06:50;20.80;99.90
37754;DHT22;23596;52.520;13.464;2022-09-12T16:09:15;20.80;99.90
37754;DHT22;23596;52.520;13.464;2022-09-12T16:11:42;20.70;99.90
37754;DHT22;23596;52.520;13.464;2022-09-12T16:14:07;20.70;99.90
37754;DHT22;23596;52.520;13.464;2022-09-12T16:16:33;20.70;99.90
37754;DHT22;23596;52.520;13.464;2022-09-12T16:18:59;20.70;99.90
37754;DHT22;23596;52.520;13.464;2022-09-12T16:21:25;20.60;99.90
37754;DHT22;23596;52.520;13.464;2022-09-12T16:23:51;20.60;99.90
37754;DHT22;23596;52.520;13.464;2022-09-12T16:26:16;20.50;99.90
37754;DHT22;23596;52.520;13.464;2022-09-12T16:28:42;20.50;99.90
37754;DHT22;23596;52.520;13.464;2022-09-12T16:31:11;21.00;99.90
37754;DHT22;23596;52.520;13.464;2022-09-12T16:33:37;20.50;99.90
37754;DHT22;23596;52.520;13.464;2022-09-12T16:36:07;20.50;99.90
37754;DHT22;23596;52.520;13.464;2022-09-12T16:38:33;20.40;99.90
37754;DHT22;23596;52.520;13.464;2022-09-12T16:41:04;20.40;99.90
37754;DHT22;23596;52.520;13.464;2022-09-12T16:43:31;20.50;99.90
37754;DHT22;23596;52.520;13.464;2022-09-12T16:48:33;20.30;99.90
37754;DHT22;23596;52.520;13.464;2022-09-12T16:51:00;20.30;99.90
37754;DHT22;23596;52.520;13.464;2022-09-12T16:53:29;20.30;99.90
37754;DHT22;23596;52.520;13.464;2022-09-12T16:55:55;20.30;99.90
37754;DHT22;23596;52.520;13.464;2022-09-12T16:58:20;20.30;99.90
37754;DHT22;23596;52.520;13.464;2022-09-12T17:00:46;20.20;99.90
37754;DHT22;23596;52.520;13.464;2022-09-12T17:03:12;20.20;99.90
37754;DHT22;23596;52.520;13.464;2022-09-12T17:05:38;20.10;99.90
37754;DHT22;23596;52.520;13.464;2022-09-12T17:08:03;20.10;99.90
37754;DHT22;23596;52.520;13.464;2022-09-12T17:10:29;21.10;99.90
37754;DHT22;23596;52.520;13.464;2022-09-12T17:12:55;21.20;99.90
37754;DHT22;23596;52.520;13.464;2022-09-12T17:15:22;20.00;99.90
37754;DHT22;23596;52.520;13.464;2022-09-12T17:17:47;20.00;99.90
37754;DHT22;23596;52.520;13.464;2022-09-12T17:20:13;20.00;99.90
37754;DHT22;23596;52.520;13.464;2022-09-12T17:22:39;20.00;99.90
37754;DHT22;23596;52.520;13.464;2022-09-12T17:25:04;19.90;99.90
37754;DHT22;23596;52.520;13.464;2022-09-12T17:27:30;19.80;99.90
37754;DHT22;23596;52.520;13.464;2022-09-12T17:29:56;19.80;99.90
37754;DHT22;23596;52.520;13.464;2022-09-12T17:32:22;19.70;99.90
37754;DHT22;23596;52.520;13.464;2022-09-12T17:34:47;19.70;99.90
37754;DHT22;23596;52.520;13.464;2022-09-12T17:37:13;19.90;99.90
37754;DHT22;23596;52.520;13.464;2022-09-12T17:39:38;19.70;99.90
37754;DHT22;23596;52.520;13.464;2022-09-12T17:42:04;19.70;99.90
37754;DHT22;23596;52.520;13.464;2022-09-12T17:44:30;19.60;99.90
37754;DHT22;23596;52.520;13.464;2022-09-12T17:46:57;19.60;99.90
37754;DHT22;23596;52.520;13.464;2022-09-12T17:49:23;19.50;99.90
37754;DHT22;23596;52.520;13.464;2022-09-12T17:51:49;19.50;99.90